Time;durP1;ratioP1;P1;durP2;ratioP2;P2;SDS_P1;SDS_P2;PMS_P1;PMS_P2;Temp;Humidity;BMP_temperature;BMP_pressure;BME280_temperature;BME280_humidity;BME280_pressure;Samples;Min_cycle;Max_cycle;Signal;HPM_P1;HPM_P2
2023/10/21 00:05:18;;;;;;;48.60;28.40;;;;;;;13.47;100.00;96261.56;435176;1253;99381;-41
2023/10/21 00:25:25;;;;;;;41.20;23.70;;;;;;;13.67;100.00;96281.80;435192;1255;99250;-40
2023/10/21 00:35:29;;;;;;;48.30;23.60;;;;;;;13.76;100.00;96290.60;435231;1256;112882;-41
2023/10/21 00:45:32;;;;;;;48.40;24.90;;;;;;;13.86;100.00;96296.65;434788;1256;520466;-41
2023/10/21 00:55:36;;;;;;;51.40;23.90;;;;;;;13.96;100.00;96295.23;435275;1253;98407;-41
2023/10/21 01:05:39;;;;;;;54.40;23.20;;;;;;;14.08;100.00;96314.27;435108;1250;108769;-41
2023/10/21 01:16:01;;;;;;;52.60;22.70;;;;;;;14.24;100.00;96320.60;436830;1250;99721;-40
2023/10/21 01:26:05;;;;;;;50.60;23.80;;;;;;;14.40;100.00;96338.04;436276;1248;110719;-41
2023/10/21 01:36:10;;;;;;;62.00;22.10;;;;;;;14.42;99.97;96354.20;436294;1253;108344;-41
2023/10/21 01:46:14;;;;;;;36.40;20.00;;;;;;;14.57;100.00;96361.42;436227;1252;98031;-40
2023/10/21 01:56:17;;;;;;;36.60;17.00;;;;;;;14.73;100.00;96367.18;436391;1253;107895;-44
2023/10/21 02:06:20;;;;;;;38.70;12.90;;;;;;;15.01;100.00;96383.95;436172;1253;99196;-41
2023/10/21 02:16:24;;;;;;;30.30;9.80;;;;;;;15.38;100.00;96388.75;436216;1253;112502;-41
2023/10/21 02:26:28;;;;;;;32.70;9.40;;;;;;;15.70;100.00;96395.61;436289;1253;107746;-40
2023/10/21 02:36:32;;;;;;;32.20;8.50;;;;;;;15.97;100.00;96394.61;436202;1252;99239;-41
2023/10/21 02:46:35;;;;;;;31.80;8.90;;;;;;;16.09;99.99;96387.43;436166;1251;108811;-41
2023/10/21 03:06:47;;;;;;;39.50;15.00;;;;;;;15.95;99.12;96412.52;436399;1253;111218;-41
2023/10/21 03:16:50;;;;;;;45.50;17.20;;;;;;;15.73;99.10;96417.77;436289;1253;107456;-41
2023/10/21 03:26:53;;;;;;;36.10;13.10;;;;;;;15.54;98.81;96425.61;436380;1253;98069;-41
2023/10/21 03:37:01;;;;;;;28.10;13.80;;;;;;;15.34;98.94;96423.98;436429;1253;108434;-40
2023/10/21 03:47:08;;;;;;;30.60;12.10;;;;;;;15.24;99.09;96440.59;436253;1251;99257;-41
2023/10/21 03:57:11;;;;;;;24.00;10.50;;;;;;;15.04;98.73;96447.89;436041;1253;110860;-40
2023/10/21 04:07:15;;;;;;;30.90;10.80;;;;;;;15.05;99.52;96449.83;436224;1253;107661;-41
2023/10/21 04:27:19;;;;;;;33.60;13.20;;;;;;;15.23;99.61;96466.39;436363;1254;108049;-41
2023/10/21 04:37:23;;;;;;;29.00;13.50;;;;;;;15.26;99.43;96484.98;436336;1253;99234;-41
2023/10/21 04:57:29;;;;;;;49.70;16.70;;;;;;;15.19;99.43;96538.52;436196;1254;106914;-41
2023/10/21 05:07:36;;;;;;;34.50;14.90;;;;;;;15.22;99.68;96566.44;436248;1250;99218;-43
2023/10/21 05:27:42;;;;;;;40.00;14.90;;;;;;;15.31;99.52;96585.05;436130;1253;99314;-40
2023/10/21 05:37:46;;;;;;;38.30;15.10;;;;;;;15.13;99.20;96630.35;436323;1252;111635;-41
2023/10/21 05:58:00;;;;;;;40.90;15.10;;;;;;;15.02;99.22;96671.20;436209;1261;99341;-40
2023/10/21 06:18:07;;;;;;;31.00;15.50;;;;;;;15.03;99.54;96703.05;436311;1253;99594;-40
2023/10/21 06:28:13;;;;;;;36.40;15.60;;;;;;;15.30;99.92;96703.06;436260;1261;112104;-40
2023/10/21 06:38:16;;;;;;;34.60;18.30;;;;;;;15.33;99.31;96719.80;436308;1253;107666;-40
2023/10/21 06:48:21;;;;;;;60.20;23.10;;;;;;;15.28;99.34;96749.44;436201;1253;99221;-41
2023/10/21 06:58:26;;;;;;;49.00;19.50;;;;;;;15.42;99.74;96770.08;436298;1248;108345;-40
2023/10/21 07:08:30;;;;;;;41.50;14.30;;;;;;;15.55;99.89;96788.91;436202;1261;97954;-41
2023/10/21 07:28:38;;;;;;;38.30;15.00;;;;;;;15.83;99.79;96837.86;436256;1252;108194;-40
2023/10/21 07:38:43;;;;;;;26.70;12.80;;;;;;;15.83;99.68;96856.69;436478;1252;99244;-41
2023/10/21 07:48:51;;;;;;;29.20;12.90;;;;;;;15.81;99.79;96869.59;436155;1253;108474;-41
2023/10/21 07:58:54;;;;;;;26.70;12.00;;;;;;;15.73;99.61;96887.98;436295;1253;97941;-40
2023/10/21 08:08:57;;;;;;;26.50;16.90;;;;;;;15.69;99.64;96906.40;436222;1254;111986;-41
2023/10/21 08:39:07;;;;;;;32.50;15.10;;;;;;;15.82;100.00;96932.34;436385;1261;107654;-41
2023/10/21 08:49:12;;;;;;;37.30;16.60;;;;;;;16.00;100.00;96948.80;436189;1261;99243;-41
2023/10/21 08:59:16;;;;;;;31.00;15.20;;;;;;;16.18;100.00;96963.54;436331;1254;111219;-40
2023/10/21 09:29:30;;;;;;;28.40;12.40;;;;;;;16.81;100.00;97031.86;436245;1261;107346;-42
2023/10/21 09:49:43;;;;;;;24.40;10.80;;;;;;;17.93;100.00;97058.48;436422;1254;112166;-41
2023/10/21 09:59:52;;;;;;;22.70;9.40;;;;;;;18.52;100.00;97066.05;436258;1253;108847;-39
2023/10/21 10:10:15;;;;;;;28.40;11.00;;;;;;;19.29;100.00;97090.66;436346;1254;98705;-41
2023/10/21 10:40:38;;;;;;;25.30;10.70;;;;;;;19.68;97.53;97124.79;436352;1253;112264;-41
2023/10/21 11:01:19;;;;;;;23.40;11.10;;;;;;;20.18;95.87;97142.30;436378;1254;99623;-49
2023/10/21 11:11:23;;;;;;;19.10;8.90;;;;;;;20.26;95.35;97153.41;436353;1253;107775;-40
2023/10/21 11:21:35;;;;;;;20.20;9.00;;;;;;;20.76;94.43;97158.59;436187;1261;99839;-41
2023/10/21 12:12:38;;;;;;;19.90;10.10;;;;;;;20.56;88.13;97222.45;436296;1248;99206;-41
2023/10/21 12:53:33;;;;;;;18.30;7.80;;;;;;;20.41;85.35;97288.59;436323;1254;107143;-41
2023/10/21 13:13:40;;;;;;;9.50;7.30;;;;;;;20.30;83.62;97300.56;436438;1247;112660;-42
2023/10/21 13:23:44;;;;;;;12.90;7.80;;;;;;;20.16;82.71;97313.48;436293;1247;107582;-40
2023/10/21 13:33:47;;;;;;;13.90;8.50;;;;;;;20.03;82.78;97331.77;436373;1248;99205;-41
2023/10/21 13:44:00;;;;;;;15.80;9.50;;;;;;;19.96;82.65;97348.67;436235;1250;107600;-43
2023/10/21 13:54:04;;;;;;;11.60;8.40;;;;;;;20.03;82.56;97351.89;436389;1253;99262;-41
2023/10/21 14:04:07;;;;;;;13.10;7.40;;;;;;;19.92;82.27;97372.95;436301;1248;111598;-40
2023/10/21 14:14:11;;;;;;;13.30;7.30;;;;;;;19.84;82.01;97376.91;436354;1253;107178;-41
2023/10/21 14:24:18;;;;;;;9.00;6.10;;;;;;;19.85;81.60;97374.91;436402;1248;99226;-41
2023/10/21 14:34:20;;;;;;;12.70;6.10;;;;;;;19.75;81.06;97379.91;436207;1253;108497;-41
2023/10/21 14:44:23;;;;;;;12.00;8.10;;;;;;;19.67;81.14;97372.17;436342;1248;99188;-40
2023/10/21 14:54:27;;;;;;;10.60;7.20;;;;;;;19.45;81.24;97373.27;436489;1251;111773;-40
2023/10/21 15:04:30;;;;;;;23.90;13.30;;;;;;;19.04;81.35;97390.96;436308;1253;108122;-41
2023/10/21 15:14:35;;;;;;;18.00;9.10;;;;;;;18.70;82.04;97411.56;436395;1247;98830;-42
2023/10/21 15:24:55;;;;;;;20.00;9.80;;;;;;;18.43;82.70;97407.64;436370;1252;108298;-41
2023/10/21 15:34:58;;;;;;;19.50;9.50;;;;;;;17.91;82.94;97426.47;436288;1247;97961;-44
2023/10/21 15:55:05;;;;;;;17.50;8.70;;;;;;;17.39;84.18;97448.63;436284;1253;108285;-41
2023/10/21 16:05:08;;;;;;;33.30;14.30;;;;;;;17.19;84.81;97471.63;436352;1253;99228;-41
2023/10/21 16:15:12;;;;;;;25.20;16.00;;;;;;;17.02;84.86;97472.25;436317;1252;108452;-40
2023/10/21 16:37:18;;;;;;;25.80;18.20;;;;;;;16.39;85.75;97502.86;436295;1253;112719;-42
2023/10/21 16:47:22;;;;;;;59.20;33.60;;;;;;;16.13;85.98;97518.90;436157;1253;107524;-42
2023/10/21 16:57:25;;;;;;;47.90;24.40;;;;;;;16.05;86.49;97534.39;436406;1249;99315;-41
2023/10/21 17:07:28;;;;;;;39.80;21.40;;;;;;;16.07;87.17;97520.76;436278;1252;109604;-41
2023/10/21 17:47:42;;;;;;;52.40;30.20;;;;;;;14.81;87.41;97552.48;436309;1252;99234;-42
2023/10/21 17:57:46;;;;;;;51.50;31.10;;;;;;;14.71;87.77;97545.42;436436;1247;107785;-40
2023/10/21 18:07:53;;;;;;;49.10;32.50;;;;;;;14.61;88.08;97536.20;436245;1251;99234;-40
2023/10/21 18:17:56;;;;;;;48.70;30.10;;;;;;;14.65;88.47;97555.85;436378;1253;111491;-42
2023/10/21 18:28:00;;;;;;;70.00;41.50;;;;;;;14.46;88.47;97590.06;436105;1253;108383;-41
2023/10/21 18:38:03;;;;;;;76.60;44.70;;;;;;;14.39;88.92;97598.98;436335;1252;99190;-41
2023/10/21 18:48:07;;;;;;;60.30;36.50;;;;;;;14.47;89.30;97613.06;436228;1255;107921;-41
2023/10/21 18:58:11;;;;;;;69.90;42.90;;;;;;;14.47;89.34;97621.46;436349;1253;99240;-44
2023/10/21 19:08:14;;;;;;;65.20;40.00;;;;;;;14.58;89.82;97621.68;436281;1253;111892;-41
2023/10/21 19:18:21;;;;;;;76.50;42.00;;;;;;;14.65;90.05;97630.71;436322;1252;107644;-42
2023/10/21 19:38:28;;;;;;;56.90;34.70;;;;;;;14.38;89.55;97624.70;436392;1248;108114;-41
2023/10/21 19:58:38;;;;;;;59.00;37.10;;;;;;;13.98;89.51;97603.24;436366;1247;111870;-40
2023/10/21 20:18:48;;;;;;;70.50;41.70;;;;;;;13.75;89.96;97596.74;436276;1253;99231;-40
2023/10/21 20:28:52;;;;;;;67.70;44.40;;;;;;;13.87;90.25;97590.23;436271;1253;107097;-41
2023/10/21 20:48:59;;;;;;;73.50;48.00;;;;;;;13.74;90.18;97595.37;436457;1251;111948;-41
2023/10/21 21:09:10;;;;;;;104.90;58.80;;;;;;;13.69;90.88;97571.16;436381;1247;99225;-40
2023/10/21 21:19:14;;;;;;;103.40;61.40;;;;;;;13.63;91.16;97569.34;436346;1252;108681;-41
2023/10/21 21:49:24;;;;;;;126.20;66.90;;;;;;;13.90;91.44;97562.05;436405;1252;109256;-41
2023/10/21 21:59:28;;;;;;;131.50;72.00;;;;;;;13.85;91.53;97550.23;436348;1253;98005;-42
2023/10/21 22:09:56;;;;;;;122.20;68.00;;;;;;;13.89;91.66;97533.24;436312;1253;108073;-41
2023/10/21 22:20:00;;;;;;;104.00;60.90;;;;;;;13.95;91.76;97522.62;436135;1254;99346;-41
2023/10/21 22:30:06;;;;;;;105.60;59.60;;;;;;;13.88;91.45;97515.02;436321;1252;111569;-41
2023/10/21 22:40:15;;;;;;;118.20;68.10;;;;;;;13.65;91.37;97515.83;436521;1248;107169;-40
2023/10/21 22:50:19;;;;;;;;;;;;;;;13.54;91.56;97525.38;436313;1253;98546;-41
2023/10/21 23:00:24;;;;;;;113.60;60.20;;;;;;;13.49;91.94;97532.35;436175;1261;106903;-41
2023/10/21 23:20:31;;;;;;;103.70;57.20;;;;;;;13.62;92.06;97540.50;436244;1252;111652;-40
2023/10/21 23:30:39;;;;;;;102.60;62.10;;;;;;;13.48;91.88;97547.22;436164;1266;108435;-41
2023/10/21 23:41:01;;;;;;;87.40;51.10;;;;;;;13.42;92.47;97547.04;436161;1253;99224;-41
2023/10/21 23:51:05;;;;;;;60.60;34.10;;;;;;;13.59;93.03;97544.35;436356;1249;107189;-40
